sensor_id;sensor_type;location;lat;lon;timestamp;pressure;altitude;pressure_sealevel;temperature;humidity
44441;BME280;30146;52.268;20.944;2023-02-02T00:01:43;99064.62;;;3.90;71.98
44441;BME280;30146;52.268;20.944;2023-02-02T00:04:18;99057.33;;;3.92;72.54
44441;BME280;30146;52.268;20.944;2023-02-02T00:06:49;99059.70;;;3.93;72.20
44441;BME280;30146;52.268;20.944;2023-02-02T00:09:21;99063.08;;;3.94;72.46
44441;BME280;30146;52.268;20.944;2023-02-02T00:11:52;99063.23;;;3.95;72.82
44441;BME280;30146;52.268;20.944;2023-02-02T00:14:23;99055.46;;;3.96;72.52
44441;BME280;30146;52.268;20.944;2023-02-02T00:16:56;99053.76;;;3.97;72.53
44441;BME280;30146;52.268;20.944;2023-02-02T00:19:28;99055.96;;;3.97;72.51
44441;BME280;30146;52.268;20.944;2023-02-02T00:22:00;99055.12;;;3.99;72.63
44441;BME280;30146;52.268;20.944;2023-02-02T00:24:31;99052.23;;;4.00;72.27
44441;BME280;30146;52.268;20.944;2023-02-02T00:27:02;99049.70;;;4.01;72.48
44441;BME280;30146;52.268;20.944;2023-02-02T00:29:34;99049.35;;;4.02;72.28
44441;BME280;30146;52.268;20.944;2023-02-02T00:32:05;99050.37;;;4.02;72.62
44441;BME280;30146;52.268;20.944;2023-02-02T00:34:36;99048.69;;;4.00;72.51
44441;BME280;30146;52.268;20.944;2023-02-02T00:37:07;99046.15;;;4.00;72.47
44441;BME280;30146;52.268;20.944;2023-02-02T00:39:38;99044.63;;;4.01;72.58
44441;BME280;30146;52.268;20.944;2023-02-02T00:42:11;99046.98;;;4.03;72.52
44441;BME280;30146;52.268;20.944;2023-02-02T00:44:41;99051.21;;;4.04;72.48
44441;BME280;30146;52.268;20.944;2023-02-02T00:47:30;99050.20;;;4.04;72.44
44441;BME280;30146;52.268;20.944;2023-02-02T00:50:01;99050.19;;;4.06;72.51
44441;BME280;30146;52.268;20.944;2023-02-02T00:52:32;99043.58;;;4.07;72.25
44441;BME280;30146;52.268;20.944;2023-02-02T00:55:03;99044.95;;;4.04;72.35
44441;BME280;30146;52.268;20.944;2023-02-02T00:57:35;99047.67;;;4.02;72.49
44441;BME280;30146;52.268;20.944;2023-02-02T01:00:11;99048.00;;;4.02;72.57
44441;BME280;30146;52.268;20.944;2023-02-02T01:02:42;99047.48;;;4.04;72.67
44441;BME280;30146;52.268;20.944;2023-02-02T01:05:14;99046.82;;;4.04;72.21
44441;BME280;30146;52.268;20.944;2023-02-02T01:07:45;99049.52;;;4.04;72.32
44441;BME280;30146;52.268;20.944;2023-02-02T01:10:17;99047.99;;;4.04;72.08
44441;BME280;30146;52.268;20.944;2023-02-02T01:12:48;99049.88;;;4.03;72.34
44441;BME280;30146;52.268;20.944;2023-02-02T01:15:19;99044.98;;;3.98;71.97
44441;BME280;30146;52.268;20.944;2023-02-02T01:17:51;99044.98;;;3.94;71.77
44441;BME280;30146;52.268;20.944;2023-02-02T01:20:22;99047.88;;;3.90;71.87
44441;BME280;30146;52.268;20.944;2023-02-02T01:22:53;99045.36;;;3.85;71.76
44441;BME280;30146;52.268;20.944;2023-02-02T01:25:24;99041.14;;;3.81;71.38
44441;BME280;30146;52.268;20.944;2023-02-02T01:27:56;99042.33;;;3.78;71.50
44441;BME280;30146;52.268;20.944;2023-02-02T01:30:29;99038.45;;;3.73;70.99
44441;BME280;30146;52.268;20.944;2023-02-02T01:33:00;99035.76;;;3.69;71.19
44441;BME280;30146;52.268;20.944;2023-02-02T01:35:31;99035.44;;;3.65;70.99
44441;BME280;30146;52.268;20.944;2023-02-02T01:38:02;99036.45;;;3.64;71.05
44441;BME280;30146;52.268;20.944;2023-02-02T01:40:33;99037.65;;;3.61;71.18
44441;BME280;30146;52.268;20.944;2023-02-02T01:43:20;99038.16;;;3.58;70.97
44441;BME280;30146;52.268;20.944;2023-02-02T01:45:53;99037.99;;;3.54;71.08
44441;BME280;30146;52.268;20.944;2023-02-02T01:48:30;99038.34;;;3.52;70.91
44441;BME280;30146;52.268;20.944;2023-02-02T01:51:08;99037.33;;;3.49;71.17
44441;BME280;30146;52.268;20.944;2023-02-02T01:53:41;99041.23;;;3.47;71.16
44441;BME280;30146;52.268;20.944;2023-02-02T01:56:16;99037.50;;;3.45;70.96
44441;BME280;30146;52.268;20.944;2023-02-02T01:58:48;99039.38;;;3.44;71.51
44441;BME280;30146;52.268;20.944;2023-02-02T02:01:20;99038.36;;;3.43;71.21
44441;BME280;30146;52.268;20.944;2023-02-02T02:03:51;99042.08;;;3.42;71.09
44441;BME280;30146;52.268;20.944;2023-02-02T02:06:23;99041.06;;;3.44;71.39
44441;BME280;30146;52.268;20.944;2023-02-02T02:08:57;99042.58;;;3.44;71.78
44441;BME280;30146;52.268;20.944;2023-02-02T02:11:33;99043.94;;;3.44;71.45
44441;BME280;30146;52.268;20.944;2023-02-02T02:14:06;99042.92;;;3.44;71.60
44441;BME280;30146;52.268;20.944;2023-02-02T02:17:09;99041.40;;;3.43;71.87
44441;BME280;30146;52.268;20.944;2023-02-02T02:20:06;99046.64;;;3.43;71.50
44441;BME280;30146;52.268;20.944;2023-02-02T02:26:30;99042.75;;;3.45;72.19
44441;BME280;30146;52.268;20.944;2023-02-02T02:29:24;99041.90;;;3.46;72.45
44441;BME280;30146;52.268;20.944;2023-02-02T02:32:07;99033.80;;;3.48;72.03
44441;BME280;30146;52.268;20.944;2023-02-02T02:34:51;99036.98;;;3.51;72.33
44441;BME280;30146;52.268;20.944;2023-02-02T02:37:30;99038.52;;;3.53;72.65
44441;BME280;30146;52.268;20.944;2023-02-02T02:40:10;99040.52;;;3.55;72.42
44441;BME280;30146;52.268;20.944;2023-02-02T02:42:48;99037.66;;;3.56;72.61
44441;BME280;30146;52.268;20.944;2023-02-02T02:45:20;99042.05;;;3.55;72.52
44441;BME280;30146;52.268;20.944;2023-02-02T02:47:52;99044.92;;;3.55;72.60
44441;BME280;30146;52.268;20.944;2023-02-02T02:50:25;99045.77;;;3.57;72.56
44441;BME280;30146;52.268;20.944;2023-02-02T02:53:03;99044.42;;;3.59;72.56
44441;BME280;30146;52.268;20.944;2023-02-02T02:55:43;99048.98;;;3.61;72.37
44441;BME280;30146;52.268;20.944;2023-02-02T02:58:20;99047.62;;;3.61;72.37
44441;BME280;30146;52.268;20.944;2023-02-02T03:01:02;99047.61;;;3.63;72.51
44441;BME280;30146;52.268;20.944;2023-02-02T03:03:48;99046.08;;;3.65;72.79
44441;BME280;30146;52.268;20.944;2023-02-02T03:06:27;99052.67;;;3.66;72.79
44441;BME280;30146;52.268;20.944;2023-02-02T03:09:02;99048.63;;;3.66;72.64
44441;BME280;30146;52.268;20.944;2023-02-02T03:11:34;99046.08;;;3.67;72.48
44441;BME280;30146;52.268;20.944;2023-02-02T03:14:05;99048.61;;;3.67;72.64
44441;BME280;30146;52.268;20.944;2023-02-02T03:16:38;99047.95;;;3.66;72.56
44441;BME280;30146;52.268;20.944;2023-02-02T03:19:09;99045.91;;;3.68;72.78
44441;BME280;30146;52.268;20.944;2023-02-02T03:21:40;99045.39;;;3.72;72.92
44441;BME280;30146;52.268;20.944;2023-02-02T03:24:11;99038.64;;;3.76;73.15
44441;BME280;30146;52.268;20.944;2023-02-02T03:26:43;99042.34;;;3.79;73.01
44441;BME280;30146;52.268;20.944;2023-02-02T03:29:14;99042.67;;;3.82;73.20
44441;BME280;30146;52.268;20.944;2023-02-02T03:31:46;99041.30;;;3.85;73.18
44441;BME280;30146;52.268;20.944;2023-02-02T03:34:18;99040.95;;;3.88;72.96
44441;BME280;30146;52.268;20.944;2023-02-02T03:36:49;99046.20;;;3.90;72.96
44441;BME280;30146;52.268;20.944;2023-02-02T03:39:20;99046.52;;;3.91;73.11
44441;BME280;30146;52.268;20.944;2023-02-02T03:41:51;99045.67;;;3.92;73.10
44441;BME280;30146;52.268;20.944;2023-02-02T03:44:22;99047.18;;;3.94;73.17
44441;BME280;30146;52.268;20.944;2023-02-02T03:46:55;99045.98;;;3.96;73.10
44441;BME280;30146;52.268;20.944;2023-02-02T03:49:26;99048.52;;;3.98;73.34
44441;BME280;30146;52.268;20.944;2023-02-02T03:51:57;99047.67;;;4.00;73.20
44441;BME280;30146;52.268;20.944;2023-02-02T03:54:27;99051.05;;;4.02;73.25
44441;BME280;30146;52.268;20.944;2023-02-02T03:56:58;99047.16;;;4.02;73.01
44441;BME280;30146;52.268;20.944;2023-02-02T03:59:29;99045.14;;;4.03;73.10
44441;BME280;30146;52.268;20.944;2023-02-02T04:02:00;99046.13;;;4.04;73.28
44441;BME280;30146;52.268;20.944;2023-02-02T04:04:31;99047.66;;;4.04;73.09
44441;BME280;30146;52.268;20.944;2023-02-02T04:07:02;99045.45;;;4.04;73.16
44441;BME280;30146;52.268;20.944;2023-02-02T04:09:33;99046.30;;;4.05;73.18
44441;BME280;30146;52.268;20.944;2023-02-02T04:12:05;99042.24;;;4.05;73.33
44441;BME280;30146;52.268;20.944;2023-02-02T04:14:36;99042.73;;;4.06;73.12
44441;BME280;30146;52.268;20.944;2023-02-02T04:17:07;99047.30;;;4.08;73.13
44441;BME280;30146;52.268;20.944;2023-02-02T04:19:38;99043.24;;;4.09;73.54
44441;BME280;30146;52.268;20.944;2023-02-02T04:22:09;99037.99;;;4.09;73.26
44441;BME280;30146;52.268;20.944;2023-02-02T04:24:40;99039.70;;;4.08;73.54
44441;BME280;30146;52.268;20.944;2023-02-02T04:27:11;99040.37;;;4.08;73.26
44441;BME280;30146;52.268;20.944;2023-02-02T04:29:42;99042.73;;;4.08;73.15
44441;BME280;30146;52.268;20.944;2023-02-02T04:32:14;99047.47;;;4.07;73.27
44441;BME280;30146;52.268;20.944;2023-02-02T04:34:46;99047.30;;;4.07;73.05
44441;BME280;30146;52.268;20.944;2023-02-02T04:37:17;99051.69;;;4.06;73.14
44441;BME280;30146;52.268;20.944;2023-02-02T04:39:48;99049.86;;;4.05;73.07
44441;BME280;30146;52.268;20.944;2023-02-02T04:42:19;99053.75;;;4.04;73.05
44441;BME280;30146;52.268;20.944;2023-02-02T04:44:50;99049.70;;;4.02;73.19
44441;BME280;30146;52.268;20.944;2023-02-02T04:47:21;99052.06;;;4.02;73.59
44441;BME280;30146;52.268;20.944;2023-02-02T04:49:52;99046.15;;;4.01;73.49
44441;BME280;30146;52.268;20.944;2023-02-02T04:52:23;99049.02;;;4.02;73.27
44441;BME280;30146;52.268;20.944;2023-02-02T04:54:54;99050.88;;;4.02;73.25
44441;BME280;30146;52.268;20.944;2023-02-02T04:57:26;99052.23;;;4.03;73.28
44441;BME280;30146;52.268;20.944;2023-02-02T04:59:57;99050.05;;;4.03;73.36
44441;BME280;30146;52.268;20.944;2023-02-02T05:02:28;99048.85;;;4.02;73.31
44441;BME280;30146;52.268;20.944;2023-02-02T05:05:00;99047.50;;;4.01;73.37
44441;BME280;30146;52.268;20.944;2023-02-02T05:07:31;99049.01;;;4.03;73.43
44441;BME280;30146;52.268;20.944;2023-02-02T05:10:02;99052.05;;;4.04;73.34
44441;BME280;30146;52.268;20.944;2023-02-02T05:12:33;99052.71;;;4.07;73.49
44441;BME280;30146;52.268;20.944;2023-02-02T05:15:05;99054.57;;;4.09;73.39
44441;BME280;30146;52.268;20.944;2023-02-02T05:17:36;99054.23;;;4.10;73.68
44441;BME280;30146;52.268;20.944;2023-02-02T05:20:10;99053.55;;;4.12;73.67
44441;BME280;30146;52.268;20.944;2023-02-02T05:22:41;99055.07;;;4.13;73.21
44441;BME280;30146;52.268;20.944;2023-02-02T05:25:12;99052.70;;;4.16;73.73
44441;BME280;30146;52.268;20.944;2023-02-02T05:27:44;99053.35;;;4.18;73.45
44441;BME280;30146;52.268;20.944;2023-02-02T05:30:17;99051.82;;;4.19;73.26
44441;BME280;30146;52.268;20.944;2023-02-02T05:32:48;99052.15;;;4.20;73.32
44441;BME280;30146;52.268;20.944;2023-02-02T05:35:19;99049.77;;;4.22;73.41
44441;BME280;30146;52.268;20.944;2023-02-02T05:37:50;99051.98;;;4.22;73.06
44441;BME280;30146;52.268;20.944;2023-02-02T05:40:21;99048.10;;;4.21;73.11
44441;BME280;30146;52.268;20.944;2023-02-02T05:42:52;99052.16;;;4.20;73.10
44441;BME280;30146;52.268;20.944;2023-02-02T05:45:23;99047.77;;;4.19;73.17
44441;BME280;30146;52.268;20.944;2023-02-02T05:47:55;99054.20;;;4.19;73.14
44441;BME280;30146;52.268;20.944;2023-02-02T05:50:26;99054.38;;;4.18;73.08
44441;BME280;30146;52.268;20.944;2023-02-02T05:53:03;99056.23;;;4.17;72.89
44441;BME280;30146;52.268;20.944;2023-02-02T05:55:35;99058.42;;;4.17;73.14
44441;BME280;30146;52.268;20.944;2023-02-02T05:58:06;99056.73;;;4.19;72.79
44441;BME280;30146;52.268;20.944;2023-02-02T06:00:38;99059.42;;;4.19;72.96
44441;BME280;30146;52.268;20.944;2023-02-02T06:03:09;99053.67;;;4.20;73.04
44441;BME280;30146;52.268;20.944;2023-02-02T06:05:41;99052.65;;;4.23;72.94
44441;BME280;30146;52.268;20.944;2023-02-02T06:08:12;99051.97;;;4.25;73.31
44441;BME280;30146;52.268;20.944;2023-02-02T06:10:43;99048.23;;;4.26;73.12
44441;BME280;30146;52.268;20.944;2023-02-02T06:13:14;99051.97;;;4.26;73.04
44441;BME280;30146;52.268;20.944;2023-02-02T06:15:47;99047.74;;;4.25;72.91
44441;BME280;30146;52.268;20.944;2023-02-02T06:18:18;99049.09;;;4.27;72.94
44441;BME280;30146;52.268;20.944;2023-02-02T06:20:54;99044.85;;;4.27;73.14
44441;BME280;30146;52.268;20.944;2023-02-02T06:23:26;99046.38;;;4.29;73.18
44441;BME280;30146;52.268;20.944;2023-02-02T06:25:57;99046.03;;;4.29;72.91
44441;BME280;30146;52.268;20.944;2023-02-02T06:28:29;99049.23;;;4.30;72.74
44441;BME280;30146;52.268;20.944;2023-02-02T06:31:05;99045.69;;;4.28;72.92
44441;BME280;30146;52.268;20.944;2023-02-02T06:33:37;99045.52;;;4.26;72.83
44441;BME280;30146;52.268;20.944;2023-02-02T06:36:09;99051.30;;;4.25;72.67
44441;BME280;30146;52.268;20.944;2023-02-02T06:38:40;99046.21;;;4.23;72.60
44441;BME280;30146;52.268;20.944;2023-02-02T06:41:11;99048.92;;;4.25;72.88
44441;BME280;30146;52.268;20.944;2023-02-02T06:43:42;99047.05;;;4.28;73.03
44441;BME280;30146;52.268;20.944;2023-02-02T06:46:14;99043.13;;;4.34;73.17
44441;BME280;30146;52.268;20.944;2023-02-02T06:48:46;99045.30;;;4.38;73.03
44441;BME280;30146;52.268;20.944;2023-02-02T06:51:17;99044.61;;;4.41;73.02
44441;BME280;30146;52.268;20.944;2023-02-02T06:53:49;99041.90;;;4.43;72.78
44441;BME280;30146;52.268;20.944;2023-02-02T06:56:20;99042.08;;;4.41;72.78
44441;BME280;30146;52.268;20.944;2023-02-02T06:58:51;99042.58;;;4.41;72.81
44441;BME280;30146;52.268;20.944;2023-02-02T07:01:22;99035.48;;;4.38;72.69
44441;BME280;30146;52.268;20.944;2023-02-02T07:03:54;99037.02;;;4.37;72.72
44441;BME280;30146;52.268;20.944;2023-02-02T07:06:27;99033.98;;;4.37;72.41
44441;BME280;30146;52.268;20.944;2023-02-02T07:08:58;99032.10;;;4.40;72.81
44441;BME280;30146;52.268;20.944;2023-02-02T07:11:33;99032.11;;;4.41;72.57
44441;BME280;30146;52.268;20.944;2023-02-02T07:14:16;99034.30;;;4.39;72.71
44441;BME280;30146;52.268;20.944;2023-02-02T07:16:48;99032.61;;;4.38;72.38
44441;BME280;30146;52.268;20.944;2023-02-02T07:19:19;99031.94;;;4.38;72.76
44441;BME280;30146;52.268;20.944;2023-02-02T07:21:50;99037.02;;;4.36;72.62
44441;BME280;30146;52.268;20.944;2023-02-02T07:24:21;99035.52;;;4.34;72.51
44441;BME280;30146;52.268;20.944;2023-02-02T07:26:52;99034.84;;;4.32;72.57
44441;BME280;30146;52.268;20.944;2023-02-02T07:29:24;99032.81;;;4.34;72.83
44441;BME280;30146;52.268;20.944;2023-02-02T07:31:55;99032.46;;;4.34;72.70
44441;BME280;30146;52.268;20.944;2023-02-02T07:34:26;99034.33;;;4.34;72.85
44441;BME280;30146;52.268;20.944;2023-02-02T07:36:58;99034.16;;;4.33;72.66
44441;BME280;30146;52.268;20.944;2023-02-02T07:39:33;99034.50;;;4.33;72.59
44441;BME280;30146;52.268;20.944;2023-02-02T07:42:04;99036.87;;;4.33;72.58
44441;BME280;30146;52.268;20.944;2023-02-02T07:44:37;99038.39;;;4.32;72.64
44441;BME280;30146;52.268;20.944;2023-02-02T07:47:08;99038.56;;;4.31;72.62
44441;BME280;30146;52.268;20.944;2023-02-02T07:49:39;99040.27;;;4.30;72.43
44441;BME280;30146;52.268;20.944;2023-02-02T07:52:10;99038.92;;;4.29;72.47
44441;BME280;30146;52.268;20.944;2023-02-02T07:54:41;99041.98;;;4.29;72.49
44441;BME280;30146;52.268;20.944;2023-02-02T07:57:15;99042.83;;;4.27;72.67
44441;BME280;30146;52.268;20.944;2023-02-02T07:59:46;99046.37;;;4.29;72.92
44441;BME280;30146;52.268;20.944;2023-02-02T08:02:18;99045.85;;;4.30;72.90
44441;BME280;30146;52.268;20.944;2023-02-02T08:04:49;99044.50;;;4.29;72.67
44441;BME280;30146;52.268;20.944;2023-02-02T08:07:22;99050.77;;;4.27;72.65
44441;BME280;30146;52.268;20.944;2023-02-02T08:09:54;99048.42;;;4.25;72.59
44441;BME280;30146;52.268;20.944;2023-02-02T08:12:25;99048.09;;;4.21;72.55
44441;BME280;30146;52.268;20.944;2023-02-02T08:14:56;99048.95;;;4.18;72.52
44441;BME280;30146;52.268;20.944;2023-02-02T08:17:27;99049.48;;;4.16;72.74
44441;BME280;30146;52.268;20.944;2023-02-02T08:19:58;99051.34;;;4.14;72.68
44441;BME280;30146;52.268;20.944;2023-02-02T08:22:29;99058.61;;;4.14;72.71
44441;BME280;30146;52.268;20.944;2023-02-02T08:25:00;99058.95;;;4.14;72.72
44441;BME280;30146;52.268;20.944;2023-02-02T08:27:32;99061.48;;;4.14;72.58
44441;BME280;30146;52.268;20.944;2023-02-02T08:30:08;99062.49;;;4.13;72.48
44441;BME280;30146;52.268;20.944;2023-02-02T08:32:39;99062.02;;;4.10;72.57
44441;BME280;30146;52.268;20.944;2023-02-02T08:35:10;99063.71;;;4.06;72.45
44441;BME280;30146;52.268;20.944;2023-02-02T08:37:41;99066.43;;;4.02;72.74
44441;BME280;30146;52.268;20.944;2023-02-02T08:40:13;99066.77;;;4.01;72.57
44441;BME280;30146;52.268;20.944;2023-02-02T08:42:44;99062.89;;;4.02;72.66
44441;BME280;30146;52.268;20.944;2023-02-02T08:45:19;99066.92;;;4.06;72.71
44441;BME280;30146;52.268;20.944;2023-02-02T08:48:10;99066.75;;;4.08;73.01
44441;BME280;30146;52.268;20.944;2023-02-02T08:50:43;99068.94;;;4.09;72.70
44441;BME280;30146;52.268;20.944;2023-02-02T08:53:14;99071.83;;;4.09;72.58
44441;BME280;30146;52.268;20.944;2023-02-02T08:55:45;99076.22;;;4.11;72.58
44441;BME280;30146;52.268;20.944;2023-02-02T08:58:16;99074.52;;;4.13;73.03
44441;BME280;30146;52.268;20.944;2023-02-02T09:00:48;99073.48;;;4.15;72.96
44441;BME280;30146;52.268;20.944;2023-02-02T09:03:19;99074.32;;;4.18;72.99
44441;BME280;30146;52.268;20.944;2023-02-02T09:05:50;99075.14;;;4.24;72.92
44441;BME280;30146;52.268;20.944;2023-02-02T09:08:21;99077.14;;;4.33;73.29
44441;BME280;30146;52.268;20.944;2023-02-02T09:10:52;99078.45;;;4.41;73.09
44441;BME280;30146;52.268;20.944;2023-02-02T09:13:23;99079.08;;;4.50;73.15
44441;BME280;30146;52.268;20.944;2023-02-02T09:15:59;99078.36;;;4.60;73.34
44441;BME280;30146;52.268;20.944;2023-02-02T09:18:33;99081.36;;;4.67;73.28
44441;BME280;30146;52.268;20.944;2023-02-02T09:21:06;99080.48;;;4.74;73.23
44441;BME280;30146;52.268;20.944;2023-02-02T09:23:39;99079.58;;;4.80;73.14
44441;BME280;30146;52.268;20.944;2023-02-02T09:26:17;99081.25;;;4.86;72.71
44441;BME280;30146;52.268;20.944;2023-02-02T09:28:50;99085.13;;;4.90;72.78
44441;BME280;30146;52.268;20.944;2023-02-02T09:31:22;99089.13;;;4.96;72.85
44441;BME280;30146;52.268;20.944;2023-02-02T09:33:58;99091.97;;;5.02;72.78
44441;BME280;30146;52.268;20.944;2023-02-02T09:36:30;99093.80;;;5.08;72.78
44441;BME280;30146;52.268;20.944;2023-02-02T09:39:01;99097.48;;;5.14;72.81
44441;BME280;30146;52.268;20.944;2023-02-02T09:44:58;99108.91;;;5.23;72.41
44441;BME280;30146;52.268;20.944;2023-02-02T09:47:48;99109.77;;;5.23;72.31
44441;BME280;30146;52.268;20.944;2023-02-02T09:50:33;99114.85;;;5.26;72.35
44441;BME280;30146;52.268;20.944;2023-02-02T09:53:13;99116.86;;;5.27;72.22
44441;BME280;30146;52.268;20.944;2023-02-02T09:55:49;99120.89;;;5.31;72.46
44441;BME280;30146;52.268;20.944;2023-02-02T09:58:23;99130.02;;;5.33;72.22
44441;BME280;30146;52.268;20.944;2023-02-02T10:01:00;99133.06;;;5.34;72.16
44441;BME280;30146;52.268;20.944;2023-02-02T10:03:35;99134.23;;;5.36;72.15
44441;BME280;30146;52.268;20.944;2023-02-02T10:06:16;99142.38;;;5.37;72.22
44441;BME280;30146;52.268;20.944;2023-02-02T10:08:54;99150.83;;;5.40;72.16
44441;BME280;30146;52.268;20.944;2023-02-02T10:11:33;99154.02;;;5.44;72.05
44441;BME280;30146;52.268;20.944;2023-02-02T10:14:16;99155.49;;;5.49;72.37
44441;BME280;30146;52.268;20.944;2023-02-02T10:16:52;99155.61;;;5.54;72.32
44441;BME280;30146;52.268;20.944;2023-02-02T10:19:23;99155.95;;;5.56;72.21
44441;BME280;30146;52.268;20.944;2023-02-02T10:22:04;99159.84;;;5.57;72.12
44441;BME280;30146;52.268;20.944;2023-02-02T10:24:37;99163.03;;;5.60;72.03
44441;BME280;30146;52.268;20.944;2023-02-02T10:27:20;99166.57;;;5.63;71.99
44441;BME280;30146;52.268;20.944;2023-02-02T10:29:58;99166.06;;;5.64;71.87
44441;BME280;30146;52.268;20.944;2023-02-02T10:32:37;99170.80;;;5.64;71.92
44441;BME280;30146;52.268;20.944;2023-02-02T10:35:25;99174.85;;;5.66;71.83
44441;BME280;30146;52.268;20.944;2023-02-02T10:38:04;99174.85;;;5.65;71.73
44441;BME280;30146;52.268;20.944;2023-02-02T10:40:46;99178.95;;;5.63;71.61
44441;BME280;30146;52.268;20.944;2023-02-02T10:43:50;99184.58;;;5.58;71.37
44441;BME280;30146;52.268;20.944;2023-02-02T10:46:29;99189.18;;;5.54;71.42
44441;BME280;30146;52.268;20.944;2023-02-02T10:49:13;99192.08;;;5.54;71.77
44441;BME280;30146;52.268;20.944;2023-02-02T10:51:50;99202.23;;;5.56;71.82
44441;BME280;30146;52.268;20.944;2023-02-02T10:54:52;99211.72;;;5.57;71.70
44441;BME280;30146;52.268;20.944;2023-02-02T10:57:48;99214.59;;;5.57;71.62
44441;BME280;30146;52.268;20.944;2023-02-02T11:00:27;99223.06;;;5.56;71.43
44441;BME280;30146;52.268;20.944;2023-02-02T11:03:00;99223.58;;;5.56;71.49
44441;BME280;30146;52.268;20.944;2023-02-02T11:05:33;99230.19;;;5.57;71.56
44441;BME280;30146;52.268;20.944;2023-02-02T11:08:30;99233.59;;;5.55;71.45
44441;BME280;30146;52.268;20.944;2023-02-02T11:11:11;99238.52;;;5.54;71.75
44441;BME280;30146;52.268;20.944;2023-02-02T11:13:52;99242.60;;;5.53;71.61
44441;BME280;30146;52.268;20.944;2023-02-02T11:16:27;99250.23;;;5.49;71.29
44441;BME280;30146;52.268;20.944;2023-02-02T11:19:28;99255.68;;;5.46;71.20
44441;BME280;30146;52.268;20.944;2023-02-02T11:22:02;99257.39;;;5.44;71.23
44441;BME280;30146;52.268;20.944;2023-02-02T11:24:37;99259.79;;;5.42;71.18
44441;BME280;30146;52.268;20.944;2023-02-02T11:27:18;99260.95;;;5.43;71.29
44441;BME280;30146;52.268;20.944;2023-02-02T11:29:52;99258.92;;;5.44;71.41
44441;BME280;30146;52.268;20.944;2023-02-02T11:32:29;99256.37;;;5.45;71.51
44441;BME280;30146;52.268;20.944;2023-02-02T11:35:19;99259.08;;;5.47;71.36
44441;BME280;30146;52.268;20.944;2023-02-02T11:38:04;99261.09;;;5.49;71.42
44441;BME280;30146;52.268;20.944;2023-02-02T11:40:43;99266.65;;;5.55;71.81
44441;BME280;30146;52.268;20.944;2023-02-02T11:43:18;99272.50;;;5.66;71.98
44441;BME280;30146;52.268;20.944;2023-02-02T11:45:55;99274.98;;;5.76;72.03
44441;BME280;30146;52.268;20.944;2023-02-02T11:48:33;99276.62;;;5.85;71.99
44441;BME280;30146;52.268;20.944;2023-02-02T11:51:06;99279.61;;;5.95;71.98
44441;BME280;30146;52.268;20.944;2023-02-02T11:53:43;99280.22;;;6.05;72.14
44441;BME280;30146;52.268;20.944;2023-02-02T11:56:21;99286.61;;;6.11;71.77
44441;BME280;30146;52.268;20.944;2023-02-02T11:58:54;99287.45;;;6.14;71.59
44441;BME280;30146;52.268;20.944;2023-02-02T12:01:29;99293.85;;;6.17;71.65
44441;BME280;30146;52.268;20.944;2023-02-02T12:04:02;99296.56;;;6.20;71.57
44441;BME280;30146;52.268;20.944;2023-02-02T12:06:50;99300.27;;;6.22;71.46
44441;BME280;30146;52.268;20.944;2023-02-02T12:09:23;99305.18;;;6.22;71.58
44441;BME280;30146;52.268;20.944;2023-02-02T12:12:03;99311.64;;;6.22;71.34
44441;BME280;30146;52.268;20.944;2023-02-02T12:14:41;99312.36;;;6.17;71.14
44441;BME280;30146;52.268;20.944;2023-02-02T12:17:32;99317.16;;;6.11;71.22
44441;BME280;30146;52.268;20.944;2023-02-02T12:20:19;99321.77;;;6.07;71.29
44441;BME280;30146;52.268;20.944;2023-02-02T12:23:26;99327.05;;;6.04;71.23
44441;BME280;30146;52.268;20.944;2023-02-02T12:26:21;99329.62;;;6.00;71.38
44441;BME280;30146;52.268;20.944;2023-02-02T12:29:12;99334.41;;;5.96;71.45
44441;BME280;30146;52.268;20.944;2023-02-02T12:31:57;99337.45;;;5.92;71.44
44441;BME280;30146;52.268;20.944;2023-02-02T12:34:40;99346.48;;;5.87;71.31
44441;BME280;30146;52.268;20.944;2023-02-02T12:37:22;99348.55;;;5.81;71.29
44441;BME280;30146;52.268;20.944;2023-02-02T12:40:12;99357.07;;;5.74;71.05
44441;BME280;30146;52.268;20.944;2023-02-02T12:43:04;99358.46;;;5.65;71.19
44441;BME280;30146;52.268;20.944;2023-02-02T12:46:28;99363.75;;;5.58;71.28
44441;BME280;30146;52.268;20.944;2023-02-02T12:49:26;99374.13;;;5.52;71.03
44441;BME280;30146;52.268;20.944;2023-02-02T12:52:19;99384.34;;;5.42;71.13
44441;BME280;30146;52.268;20.944;2023-02-02T12:55:21;99389.63;;;5.32;70.82
44441;BME280;30146;52.268;20.944;2023-02-02T12:58:06;99398.46;;;5.24;71.20
44441;BME280;30146;52.268;20.944;2023-02-02T13:00:50;99410.34;;;5.19;71.36
44441;BME280;30146;52.268;20.944;2023-02-02T13:03:33;99415.42;;;5.14;71.26
44441;BME280;30146;52.268;20.944;2023-02-02T13:06:36;99417.64;;;5.08;71.19
44441;BME280;30146;52.268;20.944;2023-02-02T13:09:13;99422.23;;;5.06;71.22
44441;BME280;30146;52.268;20.944;2023-02-02T13:11:49;99434.24;;;5.06;71.28
44441;BME280;30146;52.268;20.944;2023-02-02T13:14:23;99442.04;;;5.06;71.49
44441;BME280;30146;52.268;20.944;2023-02-02T13:16:58;99451.54;;;5.08;71.40
44441;BME280;30146;52.268;20.944;2023-02-02T13:19:36;99454.41;;;5.05;71.12
44441;BME280;30146;52.268;20.944;2023-02-02T13:22:14;99459.66;;;5.04;71.53
44441;BME280;30146;52.268;20.944;2023-02-02T13:24:50;99457.11;;;5.06;71.75
44441;BME280;30146;52.268;20.944;2023-02-02T13:27:22;99463.55;;;5.08;71.56
44441;BME280;30146;52.268;20.944;2023-02-02T13:29:56;99471.02;;;5.09;71.60
44441;BME280;30146;52.268;20.944;2023-02-02T13:32:33;99477.28;;;5.08;71.80
44441;BME280;30146;52.268;20.944;2023-02-02T13:35:14;99483.04;;;5.08;71.73
44441;BME280;30146;52.268;20.944;2023-02-02T13:37:50;99495.58;;;5.09;71.72
44441;BME280;30146;52.268;20.944;2023-02-02T13:40:29;99504.04;;;5.08;71.49
44441;BME280;30146;52.268;20.944;2023-02-02T13:43:07;99509.29;;;5.11;71.70
44441;BME280;30146;52.268;20.944;2023-02-02T13:45:51;99517.94;;;5.11;71.78
44441;BME280;30146;52.268;20.944;2023-02-02T13:48:35;99524.02;;;5.11;71.95
44441;BME280;30146;52.268;20.944;2023-02-02T13:51:43;99523.52;;;5.14;71.76